Bookmark and Share
Track history (hours):
 

Drifting buoy 41910

Last reported at 2014-Apr-21 05:40 UTC. Time now 2014-Apr-21 07:26 UTC.
Position N 28°10' W 054°06'.

Water temperature 22.7 ° C

NotesDate/timePositionNaut miles runAvg speedWind from/ knotsBaromVisibWave heightAir tempDewpointWater temp
2014-Apr-21 05:40N 28°10' W 054°06'1 6.9 22.7
2014-Apr-21 05:33N 28°11' W 054°06'0 0.0 22.7
2014-Apr-21 03:58N 28°11' W 054°06'0 3.7 22.8
2014-Apr-21 03:54N 28°10' W 054°06'0 0.4 22.8
2014-Apr-21 02:43N 28°10' W 054°05'0 0.0 22.8
2014-Apr-21 02:04N 28°10' W 054°05'0 1.6 22.8
2014-Apr-21 01:55N 28°11' W 054°05'0 0.0 22.9
2014-Apr-21 01:09N 28°11' W 054°05'0 2.0 22.8
2014-Apr-21 01:01N 28°11' W 054°06'0 0.2
2014-Apr-21 00:27N 28°11' W 054°06'0 1.5 23.0
2014-Apr-21 00:22N 28°11' W 054°06'0 0.3 23.0
2014-Apr-20 23:27N 28°10' W 054°06'0 6.8 23.1
2014-Apr-20 23:24N 28°10' W 054°06'110.9 23.1
2014-Apr-20 23:21N 28°11' W 054°06'0 0.0 23.1
2014-Apr-20 23:18N 28°11' W 054°06'0 0.0 23.1
2014-Apr-20 22:57N 28°11' W 054°06'0 1.7 23.2
2014-Apr-20 22:44N 28°11' W 054°06'0 0.0 23.2
2014-Apr-20 21:39N 28°11' W 054°06'0 0.2 23.3
2014-Apr-20 20:12N 28°11' W 054°06'0 0.0 23.3
2014-Apr-20 19:59N 28°11' W 054°06'0 0.0 23.2
2014-Apr-20 18:51N 28°11' W 054°06'0 0.4 23.0
2014-Apr-20 18:33N 28°11' W 054°06'0 2.4 23.0
2014-Apr-20 18:29N 28°12' W 054°06'0 0.3 23.0
2014-Apr-20 17:14N 28°11' W 054°05'0 0.2 23.0
2014-Apr-20 15:31N 28°11' W 054°06'0 0.4 22.7
2014-Apr-20 14:46N 28°11' W 054°05'0 0.0 22.6
2014-Apr-20 14:38N 28°11' W 054°05'0 0.0 22.6
2014-Apr-20 13:52N 28°11' W 054°05'0 0.3 22.5
2014-Apr-20 13:01N 28°12' W 054°06'0 3.3 22.4
2014-Apr-20 12:56N 28°12' W 054°05'0 0.0 22.4
2014-Apr-20 12:10N 28°12' W 054°05'0 0.0 22.4
2014-Apr-20 12:07N 28°12' W 054°05'0 4.7 22.4
2014-Apr-20 12:02N 28°11' W 054°05'0 0.2 22.4
2014-Apr-20 10:21N 28°12' W 054°05'0 3.8 22.4
2014-Apr-20 10:18N 28°11' W 054°05'0 0.2 22.4
2014-Apr-20 08:52N 28°12' W 054°05'0 0.0 22.4
2014-Apr-20 08:49N 28°12' W 054°05'0 0.0 22.4
2014-Apr-20 08:45N 28°12' W 054°05'0 9.7 22.4
2014-Apr-20 08:43N 28°12' W 054°05'0 0.0 22.4
2014-Apr-20 07:31N 28°12' W 054°05'0 2.4 22.4
2014-Apr-20 07:27N 28°12' W 054°05'0 0.0 22.4
2014-Apr-20 07:09N 28°12' W 054°05'0 2.1 22.4
2014-Apr-20 07:06N 28°12' W 054°05'1 0.6 22.4
2014-Apr-20 05:54N 28°12' W 054°04'0 0.8 22.4
2014-Apr-20 05:46N 28°12' W 054°04'113.5 22.4
2014-Apr-20 05:43N 28°12' W 054°05'0 0.1 22.4
2014-Apr-20 04:09N 28°12' W 054°05'0 0.0 22.4
2014-Apr-20 02:18N 28°12' W 054°05'0 0.0 22.5
2014-Apr-20 01:27N 28°12' W 054°05'0 3.5 22.5
2014-Apr-20 01:20N 28°13' W 054°05'0 0.4 22.5
2014-Apr-20 00:44N 28°13' W 054°05'0 9.2 22.5
2014-Apr-20 00:41N 28°12' W 054°06'0 0.2 22.5
2014-Apr-19 22:56N 28°12' W 054°05'0 0.0 22.5
2014-Apr-19 22:02N 28°12' W 054°05'0 2.2 22.5
2014-Apr-19 21:51N 28°13' W 054°06'1 0.4 22.5
2014-Apr-19 20:24N 28°12' W 054°06'0 0.0 22.5
2014-Apr-19 20:23N 28°12' W 054°06'0 0.0
2014-Apr-19 19:00N 28°12' W 054°06'0 0.0 22.5
2014-Apr-19 18:45N 28°12' W 054°06'0 0.2 22.5
2014-Apr-19 17:23N 28°12' W 054°06'1 0.4 22.5
2014-Apr-19 15:43N 28°12' W 054°07'0 0.4 22.4
2014-Apr-19 14:55N 28°12' W 054°06'0 4.4 22.4
2014-Apr-19 14:50N 28°12' W 054°06'0 0.0 22.4
2014-Apr-19 14:11N 28°12' W 054°06'0 0.3 22.3
2014-Apr-19 13:20N 28°12' W 054°06'0 0.0 22.3
2014-Apr-19 13:13N 28°12' W 054°06'0 0.0 22.3
2014-Apr-19 11:34N 28°12' W 054°06'0 0.3 22.3
2014-Apr-19 10:44N 28°12' W 054°06'0 9.6 22.2
2014-Apr-19 10:41N 28°11' W 054°06'0 0.0 22.2
2014-Apr-19 09:33N 28°11' W 054°06'0 0.2 22.2
2014-Apr-19 09:00N 28°12' W 054°06'0 0.0 22.2
2014-Apr-19 08:58N 28°12' W 054°06'0 3.4 22.2
2014-Apr-19 08:55N 28°11' W 054°06'0 0.0 22.2
2014-Apr-19 07:52N 28°11' W 054°06'0 0.5 22.2
2014-Apr-19 07:18N 28°12' W 054°07'0 1.0 22.2
2014-Apr-19 07:13N 28°12' W 054°07'0 0.0 22.2
2014-Apr-19 06:01N 28°12' W 054°07'1 4.6 22.2
2014-Apr-19 05:54N 28°12' W 054°07'0 0.0 22.2
2014-Apr-19 04:15N 28°12' W 054°07'0 0.0 22.2
2014-Apr-19 01:46N 28°12' W 054°07'0 7.8 22.3
2014-Apr-19 01:43N 28°12' W 054°06'0 0.0 22.3
2014-Apr-19 01:00N 28°12' W 054°06'012.7 22.3
2014-Apr-19 00:58N 28°12' W 054°07'0 0.0 22.3
2014-Apr-19 00:52N 28°12' W 054°07'0 0.7 22.3
2014-Apr-19 00:09N 28°12' W 054°07'0 0.0 22.3
2014-Apr-19 00:06N 28°12' W 054°07'1 0.3 22.3
2014-Apr-18 20:50N 28°12' W 054°08'0 0.0 22.4
2014-Apr-18 20:35N 28°12' W 054°08'0 0.0 22.4
2014-Apr-18 18:53N 28°12' W 054°08'0 0.3 22.4
2014-Apr-18 17:36N 28°12' W 054°08'1 0.4 22.3
2014-Apr-18 15:53N 28°11' W 054°08'0 0.0 22.3
2014-Apr-18 15:05N 28°11' W 054°08'0 0.4 22.3
2014-Apr-18 14:32N 28°11' W 054°07'0 0.4 22.2
2014-Apr-18 13:49N 28°11' W 054°07'1 1.7 22.2
2014-Apr-18 13:26N 28°12' W 054°07'0 0.0 22.2
2014-Apr-18 12:43N 28°12' W 054°07'0 0.0 22.2
2014-Apr-18 11:46N 28°12' W 054°07'0 0.0 22.2
2014-Apr-18 10:05N 28°12' W 054°07'0 0.2 22.2
2014-Apr-18 09:34N 28°12' W 054°07'0 2.5 22.2
2014-Apr-18 09:26N 28°12' W 054°07'0 0.0 22.2
2014-Apr-18 09:14N 28°12' W 054°07'0 7.5 22.2
2014-Apr-18 09:11N 28°12' W 054°07'1 7.4 22.2
2014-Apr-18 09:05N 28°12' W 054°07'0 0.2 22.2
2014-Apr-18 07:50N 28°12' W 054°07'0 0.6 22.2
2014-Apr-18 07:28N 28°12' W 054°07'112.5 22.2
2014-Apr-18 07:25N 28°12' W 054°08'0 0.1 22.2
2014-Apr-18 04:30N 28°12' W 054°08'0 3.3 22.3
2014-Apr-18 04:25N 28°12' W 054°08'0 0.0 22.3
2014-Apr-18 02:09N 28°12' W 054°08'0 2.3 22.3
2014-Apr-18 02:04N 28°12' W 054°08'0 0.0 22.3
2014-Apr-18 01:16N 28°12' W 054°08'0 0.0 22.3
2014-Apr-18 01:01N 28°12' W 054°08'0 0.1 22.3
2014-Apr-18 00:25N 28°12' W 054°08'0 0.2 22.4
2014-Apr-17 23:43N 28°12' W 054°07'0 0.0 22.4
2014-Apr-17 23:22N 28°12' W 054°07'1 0.3 22.4
2014-Apr-17 21:12N 28°12' W 054°08'0 0.7 22.4
2014-Apr-17 20:42N 28°12' W 054°08'0 6.3 22.4
2014-Apr-17 20:39N 28°12' W 054°09'0 0.0 22.4
2014-Apr-17 19:32N 28°12' W 054°09'0 0.0 22.4
2014-Apr-17 19:08N 28°12' W 054°09'0 0.3 22.4
2014-Apr-17 17:48N 28°12' W 054°08'1 1.6 22.4
2014-Apr-17 17:23N 28°11' W 054°09'0 0.1 22.4
2014-Apr-17 14:53N 28°11' W 054°08'0 0.0 22.3
2014-Apr-17 14:09N 28°11' W 054°08'0 1.9 22.3
2014-Apr-17 13:59N 28°11' W 054°08'0 0.0 22.3
2014-Apr-17 13:42N 28°11' W 054°08'0 3.2 22.3
2014-Apr-17 13:36N 28°12' W 054°08'0 0.8 22.3
2014-Apr-17 13:13N 28°11' W 054°08'0 0.4 22.3
2014-Apr-17 12:20N 28°12' W 054°08'0 0.0 22.3
2014-Apr-17 12:02N 28°12' W 054°08'1 5.0 22.3
2014-Apr-17 11:55N 28°12' W 054°07'0 0.0 22.3
2014-Apr-17 10:28N 28°12' W 054°07'0 0.0 22.3
2014-Apr-17 09:58N 28°12' W 054°07'0 0.4 22.3
2014-Apr-17 09:25N 28°12' W 054°07'0 4.8 22.3
2014-Apr-17 09:20N 28°12' W 054°08'0 0.3 22.3
2014-Apr-17 08:55N 28°12' W 054°08'0 0.2 22.4
2014-Apr-17 08:11N 28°12' W 054°08'0 0.0 22.4
2014-Apr-17 07:41N 28°12' W 054°08'0 0.2 22.4
2014-Apr-17 06:22N 28°12' W 054°07'112.0 22.4
2014-Apr-17 06:16N 28°12' W 054°08'0 0.0 22.4
2014-Apr-17 04:41N 28°12' W 054°08'0 0.1 22.4
2014-Apr-17 02:24N 28°12' W 054°08'0 0.0 22.4
2014-Apr-17 01:39N 28°12' W 054°08'0 0.2 22.4
2014-Apr-17 01:16N 28°12' W 054°08'0 0.7 22.4
2014-Apr-17 00:49N 28°12' W 054°09'0 0.1 22.4
2014-Apr-17 00:03N 28°12' W 054°09'0 1.4 22.4
2014-Apr-16 23:58N 28°12' W 054°09'0 0.0 22.4
2014-Apr-16 23:33N 28°12' W 054°09'0 0.4 22.4
2014-Apr-16 23:03N 28°12' W 054°09'0 0.0 22.4
2014-Apr-16 21:37N 28°12' W 054°09'0 0.3 22.4
2014-Apr-16 19:53N 28°12' W 054°09'0 0.0 22.4
2014-Apr-16 19:18N 28°12' W 054°09'0 0.1 22.4
2014-Apr-16 17:59N 28°12' W 054°09'0 0.8 22.4
2014-Apr-16 17:35N 28°12' W 054°09'1 0.4 22.4
2014-Apr-16 16:09N 28°12' W 054°09'0 0.1 22.4
2014-Apr-16 15:11N 28°12' W 054°09'0 0.1 22.4
2014-Apr-16 13:45N 28°13' W 054°09'0 0.0 22.3
2014-Apr-16 12:44N 28°13' W 054°09'0 6.8 22.3
2014-Apr-16 12:41N 28°13' W 054°09'0 0.0 22.3
2014-Apr-16 12:10N 28°13' W 054°09'1 2.9 22.3
2014-Apr-16 11:49N 28°13' W 054°08'0 0.0 22.3
2014-Apr-16 10:19N 28°13' W 054°08'2 2.0 22.3
2014-Apr-16 09:29N 28°14' W 054°10'2101.8 22.3
2014-Apr-16 09:28N 28°13' W 054°08'2 1.9 22.3
2014-Apr-16 08:35N 28°14' W 054°10'0 0.0 22.3
2014-Apr-16 07:49N 28°14' W 054°10'0 0.0 22.3
2014-Apr-16 06:59N 28°14' W 054°10'0 0.0
2014-Apr-16 06:35N 28°14' W 054°10'0 2.7 22.3
2014-Apr-16 06:28N 28°14' W 054°10'0 0.0 22.3
2014-Apr-16 04:53N 28°14' W 054°10'0 0.0 22.2
2014-Apr-16 01:28N 28°13' W 054°10'0 0.7 22.3
2014-Apr-16 01:10N 28°13' W 054°10'0 0.6 22.3
2014-Apr-16 00:25N 28°13' W 054°10'0 0.0 22.3
2014-Apr-15 23:45N 28°13' W 054°10'0 1.2 22.3
2014-Apr-15 23:27N 28°14' W 054°10'0 0.4 22.3
2014-Apr-15 22:13N 28°13' W 054°10'1 6.0 22.4
2014-Apr-15 21:58N 28°13' W 054°08'1 0.6 22.4
2014-Apr-15 20:22N 28°13' W 054°09'0 0.0 22.4
2014-Apr-15 19:29N 28°13' W 054°09'0 0.0 22.4
2014-Apr-15 18:09N 28°13' W 054°09'0 0.6 22.4
2014-Apr-15 17:48N 28°13' W 054°10'0 0.4 22.4
2014-Apr-15 16:29N 28°13' W 054°09'1 5.1 22.4
2014-Apr-15 16:23N 28°13' W 054°09'0 0.0 22.4
2014-Apr-15 14:45N 28°13' W 054°09'0 0.0 22.4
2014-Apr-15 14:09N 28°13' W 054°09'0 1.8 22.4
2014-Apr-15 14:02N 28°13' W 054°09'0 3.6 22.4
2014-Apr-15 13:56N 28°13' W 054°08'0 0.5 22.4
2014-Apr-15 13:09N 28°13' W 054°09'0 0.3 22.4
2014-Apr-15 12:24N 28°13' W 054°09'0 0.2 22.4
2014-Apr-15 12:11N 28°13' W 054°09'0 4.4 22.4
2014-Apr-15 12:08N 28°13' W 054°09'0 0.0 22.4
2014-Apr-15 10:44N 28°13' W 054°09'0 0.0 22.5
2014-Apr-15 10:01N 28°13' W 054°09'0 0.4 22.5
2014-Apr-15 09:05N 28°13' W 054°08'1 7.3 22.5
2014-Apr-15 08:58N 28°13' W 054°09'0 0.0 22.5
2014-Apr-15 08:19N 28°13' W 054°09'0 0.4 22.5
2014-Apr-15 08:01N 28°13' W 054°09'0 0.4 22.6
2014-Apr-15 07:23N 28°13' W 054°09'0 0.7 22.6
2014-Apr-15 06:49N 28°13' W 054°09'0 3.0 22.6
2014-Apr-15 06:40N 28°12' W 054°10'0 0.0 22.6
2014-Apr-15 06:22N 28°12' W 054°10'0 0.0 22.6
2014-Apr-15 05:02N 28°12' W 054°10'1 0.3 22.6
2014-Apr-15 01:37N 28°12' W 054°09'0 1.6 22.8
2014-Apr-15 01:28N 28°11' W 054°09'0 0.5 22.8
2014-Apr-15 00:46N 28°11' W 054°09'0 0.1 22.8
2014-Apr-15 00:00N 28°11' W 054°09'0 0.5 22.8
2014-Apr-14 23:51N 28°11' W 054°09'0 0.0 22.8
2014-Apr-14 23:48N 28°11' W 054°09'0 0.1 22.8
2014-Apr-14 21:10N 28°11' W 054°09'0 1.3 22.9
2014-Apr-14 20:48N 28°10' W 054°09'0 0.0 22.9
2014-Apr-14 19:37N 28°10' W 054°09'0 0.7 22.9
2014-Apr-14 19:06N 28°10' W 054°10'0 0.0 22.9
2014-Apr-14 18:20N 28°10' W 054°10'0 4.1 22.9
2014-Apr-14 18:14N 28°10' W 054°10'0 0.0 22.9
2014-Apr-14 18:00N 28°10' W 054°10'0 0.0 22.9
2014-Apr-14 16:38N 28°10' W 054°10'0 0.2 23.0
2014-Apr-14 14:20N 28°10' W 054°11'0 3.2 23.0
2014-Apr-14 14:15N 28°10' W 054°11'0 0.0 23.0
2014-Apr-14 13:32N 28°10' W 054°11'1 6.1 23.0
2014-Apr-14 13:27N 28°10' W 054°12'1 0.2 23.0
2014-Apr-14 09:31N 28°11' W 054°12'0 1.9 23.0
2014-Apr-14 09:26N 28°11' W 054°12'111.2 23.0
2014-Apr-14 09:23N 28°11' W 054°13'0 0.0 23.0
2014-Apr-14 08:52N 28°11' W 054°13'0 0.3 23.0
2014-Apr-14 08:16N 28°11' W 054°13'1 8.2 23.0
2014-Apr-14 08:11N 28°12' W 054°13'0 0.0 23.0
2014-Apr-14 07:46N 28°12' W 054°13'0 0.0 23.0
2014-Apr-14 06:58N 28°12' W 054°13'1 6.0 23.0
2014-Apr-14 06:50N 28°12' W 054°14'0 0.0 23.0
2014-Apr-14 06:35N 28°12' W 054°14'0 0.0 23.0
2014-Apr-14 05:14N 28°12' W 054°14'3 0.8 23.0
2014-Apr-14 01:51N 28°14' W 054°15'1 1.7 23.0
2014-Apr-14 01:01N 28°16' W 054°16'0 0.0 23.0
2014-Apr-14 00:09N 28°16' W 054°16'012.3
2014-Apr-14 00:07N 28°16' W 054°16'0 0.0 23.0
2014-Apr-13 23:18N 28°16' W 054°16'2 1.1 23.0
2014-Apr-13 21:12N 28°18' W 054°18'1 0.5 23.0
2014-Apr-13 19:53N 28°18' W 054°18'5 1.0 23.0
2014-Apr-13 15:05N 28°22' W 054°19'0 0.1 23.0
2014-Apr-13 14:30N 28°22' W 054°19'2 3.6 23.0
2014-Apr-13 13:51N 28°24' W 054°21'0 0.0 23.0
2014-Apr-13 12:49N 28°24' W 054°21'230.6 23.0
2014-Apr-13 12:46N 28°25' W 054°22'0 0.0 23.0
2014-Apr-13 12:43N 28°25' W 054°22'0 0.0 23.0
2014-Apr-13 12:02N 28°25' W 054°22'0 0.0
2014-Apr-13 10:59N 28°25' W 054°22'1 1.0 22.9
2014-Apr-13 09:55N 28°26' W 054°23'112.9 22.9
2014-Apr-13 09:50N 28°27' W 054°23'1 1.3 22.9
2014-Apr-13 09:22N 28°26' W 054°23'1 0.7 22.9
2014-Apr-13 08:31N 28°27' W 054°23'1 7.6 22.9
2014-Apr-13 08:22N 28°27' W 054°25'0 0.0 22.9
2014-Apr-13 07:41N 28°27' W 054°25'0 0.5 22.9
2014-Apr-13 06:47N 28°28' W 054°25'1 0.6 22.9
2014-Apr-13 05:24N 28°29' W 054°25'227.6 22.9
2014-Apr-13 05:19N 28°30' W 054°27'0 0.0 22.9
2014-Apr-13 02:12N 28°30' W 054°27'0 1.8 22.9
2014-Apr-13 02:04N 28°30' W 054°27'1 0.9 22.9
2014-Apr-13 01:22N 28°31' W 054°27'0 0.0 22.9
2014-Apr-13 00:34N 28°31' W 054°27'0 0.0 22.8
2014-Apr-13 00:31N 28°31' W 054°27'0 1.4 22.8
2014-Apr-13 00:24N 28°31' W 054°27'1 1.4 22.8
2014-Apr-12 23:48N 28°32' W 054°28'0 0.0 22.7
2014-Apr-12 22:51N 28°32' W 054°28'0 7.8 22.7
2014-Apr-12 22:48N 28°32' W 054°28'0 0.0 22.7
2014-Apr-12 21:35N 28°32' W 054°28'1 0.4 22.8
2014-Apr-12 20:03N 28°32' W 054°29'1 9.9 22.8
2014-Apr-12 19:59N 28°33' W 054°29'0 0.0 22.8
2014-Apr-12 19:57N 28°33' W 054°29'0 0.0 22.8
2014-Apr-12 18:38N 28°33' W 054°29'0 0.0 22.8
2014-Apr-12 18:21N 28°33' W 054°29'0 3.6 22.8
2014-Apr-12 18:15N 28°33' W 054°29'0 0.0 22.8
2014-Apr-12 17:02N 28°33' W 054°29'1 0.8 22.5
2014-Apr-12 15:18N 28°35' W 054°29'0 0.6 22.4
2014-Apr-12 14:54N 28°34' W 054°29'0 0.7 22.4
2014-Apr-12 14:38N 28°35' W 054°29'0 0.0 22.4
2014-Apr-12 14:08N 28°35' W 054°29'2 1.4 22.4
2014-Apr-12 12:59N 28°36' W 054°28'0 0.0 22.4
2014-Apr-12 12:25N 28°36' W 054°28'0 0.0 22.4
2014-Apr-12 11:32N 28°36' W 054°28'0 0.0 22.4
2014-Apr-12 10:19N 28°36' W 054°28'0 5.6 22.4
2014-Apr-12 10:17N 28°36' W 054°28'116.5 22.4
2014-Apr-12 10:14N 28°37' W 054°28'1 1.7 22.4
2014-Apr-12 09:55N 28°36' W 054°28'1 0.4 22.4
2014-Apr-12 08:41N 28°37' W 054°28'1 8.2
2014-Apr-12 08:35N 28°38' W 054°28'1 1.9 22.4
2014-Apr-12 08:10N 28°37' W 054°28'1 0.9 22.4
2014-Apr-12 07:20N 28°38' W 054°28'0 0.3 22.4
2014-Apr-12 06:57N 28°38' W 054°28'352.0
2014-Apr-12 06:54N 28°40' W 054°27'0 0.0 22.4
2014-Apr-12 05:30N 28°40' W 054°27'0 0.0 22.4
2014-Apr-12 03:54N 28°40' W 054°27'0 0.0 22.5
2014-Apr-12 02:31N 28°40' W 054°27'112.7 22.6
2014-Apr-12 02:28N 28°41' W 054°27'0 0.0 22.6
2014-Apr-12 02:09N 28°41' W 054°27'0 0.0
2014-Apr-12 01:43N 28°41' W 054°27'0 0.2 22.6
2014-Apr-12 00:52N 28°41' W 054°27'0 0.8 22.6
2014-Apr-12 00:37N 28°41' W 054°27'0 4.8 22.6
2014-Apr-12 00:36N 28°41' W 054°27'0 0.9 22.6
2014-Apr-12 00:06N 28°41' W 054°27'0 4.7 22.7
2014-Apr-12 00:01N 28°42' W 054°27'0 0.0 22.7
2014-Apr-11 23:12N 28°42' W 054°27'0 5.0 22.7
2014-Apr-11 23:07N 28°41' W 054°27'0 0.0 22.7
2014-Apr-11 22:54N 28°41' W 054°27'1 0.4 22.7
2014-Apr-11 20:21N 28°42' W 054°26'0 0.0 22.6
2014-Apr-11 20:15N 28°42' W 054°26'0 1.4 22.6
2014-Apr-11 20:08N 28°42' W 054°26'1 0.5 22.6
2014-Apr-11 18:50N 28°43' W 054°26'0 0.9 22.7
2014-Apr-11 18:35N 28°43' W 054°27'0 0.0 22.8
2014-Apr-11 18:33N 28°43' W 054°27'0 5.1 22.8
2014-Apr-11 18:29N 28°43' W 054°26'0 0.0 22.8
2014-Apr-11 17:12N 28°43' W 054°26'1 0.4 22.8
2014-Apr-11 15:29N 28°44' W 054°26'0 0.5 22.8
2014-Apr-11 14:52N 28°44' W 054°26'0 5.5 22.8
2014-Apr-11 14:49N 28°44' W 054°26'0 0.0 22.8
2014-Apr-11 14:34N 28°44' W 054°26'0 0.4 22.6
2014-Apr-11 13:35N 28°44' W 054°26'0 0.0 22.4
2014-Apr-11 13:13N 28°44' W 054°26'0 4.7
2014-Apr-11 13:11N 28°44' W 054°26'0 0.9 22.4
2014-Apr-11 12:53N 28°44' W 054°25'0 0.8 22.4
2014-Apr-11 12:47N 28°45' W 054°26'119.7 22.4
2014-Apr-11 12:43N 28°45' W 054°25'0 0.0
2014-Apr-11 11:52N 28°45' W 054°25'0 0.0 22.3
2014-Apr-11 10:43N 28°45' W 054°25'0 4.7 22.2
2014-Apr-11 10:38N 28°45' W 054°24'0 0.0
2014-Apr-11 10:25N 28°45' W 054°24'1 0.5 22.2
2014-Apr-11 08:59N 28°46' W 054°24'0 0.9 22.2
2014-Apr-11 08:55N 28°46' W 054°24'0 0.8 22.2
2014-Apr-11 08:49N 28°46' W 054°24'0 1.6 22.2
2014-Apr-11 08:46N 28°46' W 054°24'264.4 22.2
2014-Apr-11 08:44N 28°47' W 054°22'0 0.0 22.2
2014-Apr-11 07:06N 28°47' W 054°22'0 0.0 22.2
2014-Apr-11 05:49N 28°47' W 054°22'118.2 22.2
2014-Apr-11 05:45N 28°48' W 054°22'0 0.0 22.2
2014-Apr-11 05:40N 28°48' W 054°22'   22.2

Dump ship's entire track history

sailing weather and tide predictions

Buoy 41910